Time;durP1;ratioP1;P1;durP2;ratioP2;P2;SDS_P1;SDS_P2;PMS_P1;PMS_P2;Temp;Humidity;BMP_temperature;BMP_pressure;BME280_temperature;BME280_humidity;BME280_pressure;Samples;Min_cycle;Max_cycle;Signal;HPM_P1;HPM_P2
2023/06/11 00:01:20;;;;;;;14.87;13.50;;;24.00;55.70;;;;;;5055752;28;20457;-57
2023/06/11 00:03:52;;;;;;;10.87;9.90;;;23.90;55.80;;;;;;5054885;28;20449;-56
2023/06/11 00:06:22;;;;;;;11.47;8.83;;;23.80;55.70;;;;;;5054783;28;20478;-56
2023/06/11 00:08:48;;;;;;;10.47;9.43;;;23.70;55.50;;;;;;5054485;28;20449;-57
2023/06/11 00:11:16;;;;;;;8.77;8.10;;;23.70;55.70;;;;;;5054615;28;20450;-56
2023/06/11 00:13:42;;;;;;;9.50;8.60;;;23.60;55.70;;;;;;5055243;28;20479;-56
2023/06/11 00:16:12;;;;;;;9.10;7.63;;;23.50;55.90;;;;;;5054591;28;20461;-56
2023/06/11 00:18:40;;;;;;;9.23;8.37;;;23.40;56.00;;;;;;5055102;28;20588;-56
2023/06/11 00:21:07;;;;;;;9.07;8.37;;;23.40;56.30;;;;;;5054481;28;20499;-56
2023/06/11 00:23:35;;;;;;;9.43;7.80;;;23.40;56.60;;;;;;5054519;28;20532;-57
2023/06/11 00:26:01;;;;;;;8.10;7.40;;;23.30;56.70;;;;;;5054223;28;20509;-57
2023/06/11 00:28:28;;;;;;;8.77;8.10;;;23.30;57.00;;;;;;5054376;28;20452;-57
2023/06/11 00:30:55;;;;;;;8.40;7.70;;;23.30;57.00;;;;;;5054373;28;20461;-57
2023/06/11 00:33:23;;;;;;;8.33;7.63;;;23.20;57.20;;;;;;5054064;28;20454;-57
2023/06/11 00:35:49;;;;;;;9.10;8.40;;;23.20;57.30;;;;;;5053829;28;20453;-57
2023/06/11 00:38:16;;;;;;;9.30;8.40;;;23.20;57.40;;;;;;5054198;28;20457;-57
2023/06/11 00:40:43;;;;;;;8.70;8.10;;;23.20;57.50;;;;;;5054132;28;20454;-57
2023/06/11 00:43:10;;;;;;;9.00;8.20;;;23.20;57.50;;;;;;5054174;28;20449;-57
2023/06/11 00:45:37;;;;;;;8.90;8.10;;;23.30;57.70;;;;;;5053652;28;20453;-57
2023/06/11 00:48:04;;;;;;;9.70;8.80;;;23.30;57.60;;;;;;5054018;28;20450;-57
2023/06/11 00:50:34;;;;;;;9.90;8.67;;;23.30;57.60;;;;;;5053558;28;20821;-57
2023/06/11 00:53:01;;;;;;;8.87;7.53;;;23.30;57.50;;;;;;5054008;28;20834;-57
2023/06/11 00:55:28;;;;;;;9.70;7.90;;;23.30;57.50;;;;;;5053900;28;20528;-57
2023/06/11 00:57:55;;;;;;;11.00;9.23;;;23.30;57.50;;;;;;5054051;28;20504;-57
2023/06/11 01:00:22;;;;;;;9.20;8.50;;;23.30;57.60;;;;;;5053678;28;20531;-57
2023/06/11 01:02:57;;;;;;;9.67;8.67;;;23.30;57.70;;;;;;5053826;28;20894;-57
2023/06/11 01:05:26;;;;;;;10.67;9.77;;;23.30;57.70;;;;;;5053787;28;20484;-57
2023/06/11 01:07:55;;;;;;;9.97;8.90;;;23.30;57.80;;;;;;5053591;28;20469;-57
2023/06/11 01:10:23;;;;;;;10.23;8.83;;;23.30;57.80;;;;;;5053587;28;20446;-57
2023/06/11 01:12:49;;;;;;;10.63;9.30;;;23.20;58.40;;;;;;5053221;28;20967;-57
2023/06/11 01:15:16;;;;;;;9.67;8.87;;;23.20;57.90;;;;;;5053595;28;20903;-57
2023/06/11 01:17:49;;;;;;;9.50;8.60;;;23.20;58.00;;;;;;5053533;28;20466;-57
2023/06/11 01:20:19;;;;;;;9.27;8.50;;;23.20;58.00;;;;;;5052849;28;21002;-57
2023/06/11 01:23:05;;;;;;;8.87;8.10;;;23.10;58.60;;;;;;5053827;28;20454;-57
2023/06/11 01:25:38;;;;;;;10.37;9.50;;;23.10;58.10;;;;;;5053569;28;20480;-56
2023/06/11 01:28:10;;;;;;;10.03;8.93;;;23.10;58.20;;;;;;5054027;28;20509;-57
2023/06/11 01:30:40;;;;;;;9.03;8.23;;;23.00;58.20;;;;;;5053388;28;20426;-56
2023/06/11 01:33:09;;;;;;;9.10;8.40;;;23.00;58.40;;;;;;5053384;28;20926;-57
2023/06/11 01:35:35;;;;;;;9.27;8.57;;;23.00;58.50;;;;;;5053468;28;20524;-57
2023/06/11 01:38:02;;;;;;;8.80;8.20;;;22.90;58.60;;;;;;5053211;28;20852;-57
2023/06/11 01:40:30;;;;;;;9.37;8.63;;;22.90;58.80;;;;;;5053438;28;20513;-57
2023/06/11 01:42:57;;;;;;;10.93;9.00;;;22.90;58.90;;;;;;5053422;28;20453;-57
2023/06/11 01:45:26;;;;;;;9.00;8.20;;;22.80;59.10;;;;;;5052503;28;20449;-57
2023/06/11 01:47:53;;;;;;;10.17;9.33;;;22.80;59.30;;;;;;5053114;28;20472;-57
2023/06/11 01:50:20;;;;;;;10.03;9.20;;;22.80;59.40;;;;;;5053190;28;20445;-57
2023/06/11 01:52:48;;;;;;;9.17;8.43;;;22.80;59.50;;;;;;5053194;28;20454;-57
2023/06/11 01:55:15;;;;;;;9.00;7.97;;;22.70;59.40;;;;;;5053191;28;20507;-57
2023/06/11 01:57:42;;;;;;;9.47;8.40;;;22.70;59.60;;;;;;5052688;28;20470;-57
2023/06/11 02:00:10;;;;;;;9.80;8.90;;;22.70;59.60;;;;;;5053063;28;20484;-57
2023/06/11 02:02:39;;;;;;;9.03;8.37;;;22.70;59.80;;;;;;5053020;28;20809;-57
2023/06/11 02:05:06;;;;;;;8.43;7.83;;;22.70;59.80;;;;;;5053085;28;20458;-57
2023/06/11 02:07:33;;;;;;;8.80;8.10;;;22.60;59.80;;;;;;5053050;28;20472;-57
2023/06/11 02:09:59;;;;;;;8.67;7.97;;;22.60;59.80;;;;;;5053008;28;20442;-57
2023/06/11 02:12:26;;;;;;;9.90;9.10;;;22.60;59.90;;;;;;5053590;28;20841;-57
2023/06/11 02:14:53;;;;;;;9.03;8.23;;;22.60;59.90;;;;;;5055118;28;20499;-57
2023/06/11 02:17:19;;;;;;;9.30;8.40;;;22.60;61.10;;;;;;5054469;28;20466;-57
2023/06/11 02:19:47;;;;;;;8.97;8.27;;;22.60;60.40;;;;;;5053727;28;20492;-57
2023/06/11 02:22:15;;;;;;;9.40;8.50;;;22.60;60.30;;;;;;5052948;28;20477;-57
2023/06/11 02:24:41;;;;;;;8.27;7.20;;;22.70;60.30;;;;;;5052863;28;20492;-57
2023/06/11 02:27:08;;;;;;;8.90;8.10;;;22.70;60.20;;;;;;5052892;28;20874;-57
2023/06/11 02:29:35;;;;;;;10.17;9.37;;;22.70;60.10;;;;;;5052735;28;20499;-57
2023/06/11 02:32:02;;;;;;;8.87;8.20;;;22.70;60.00;;;;;;5052855;28;20531;-57
2023/06/11 02:34:28;;;;;;;9.00;8.30;;;22.70;59.80;;;;;;5052468;28;20974;-57
2023/06/11 02:36:56;;;;;;;10.30;8.83;;;22.80;59.90;;;;;;5052673;28;20465;-57
2023/06/11 02:39:23;;;;;;;9.23;8.43;;;22.80;59.70;;;;;;5052869;28;20478;-57
2023/06/11 02:41:50;;;;;;;8.33;7.63;;;22.80;59.60;;;;;;5052754;28;20454;-57
2023/06/11 02:44:16;;;;;;;8.33;7.73;;;22.80;59.60;;;;;;5052668;28;20453;-57
2023/06/11 02:46:43;;;;;;;9.53;8.53;;;22.90;59.30;;;;;;5052514;28;20461;-57
2023/06/11 02:49:10;;;;;;;9.30;8.47;;;22.90;59.20;;;;;;5052631;28;20449;-57
2023/06/11 02:51:36;;;;;;;10.00;8.30;;;22.90;58.90;;;;;;5052789;28;20503;-57
2023/06/11 02:54:05;;;;;;;9.70;8.90;;;22.90;58.60;;;;;;5052664;28;20441;-57
2023/06/11 02:56:31;;;;;;;9.03;8.33;;;22.90;58.90;;;;;;5054775;28;20504;-57
2023/06/11 02:58:58;;;;;;;9.00;8.20;;;22.90;59.10;;;;;;5056033;28;20633;-57
2023/06/11 03:01:25;;;;;;;9.97;8.13;;;22.90;59.20;;;;;;5056068;28;20449;-57
2023/06/11 03:03:52;;;;;;;8.20;7.60;;;22.90;59.80;;;;;;5056239;28;20445;-57
2023/06/11 03:06:19;;;;;;;8.17;7.53;;;22.90;59.50;;;;;;5055971;28;20469;-57
2023/06/11 03:08:45;;;;;;;8.93;8.17;;;22.90;59.50;;;;;;5055881;28;20489;-57
2023/06/11 03:11:15;;;;;;;9.57;8.40;;;22.90;59.30;;;;;;5055824;28;20485;-57
2023/06/11 03:13:41;;;;;;;10.10;9.10;;;23.00;59.20;;;;;;5056092;28;20442;-57
2023/06/11 03:16:08;;;;;;;9.20;8.40;;;22.90;59.10;;;;;;5055373;28;20473;-57
2023/06/11 03:18:35;;;;;;;8.83;7.93;;;22.90;59.00;;;;;;5055489;28;20958;-57
2023/06/11 03:21:01;;;;;;;9.33;8.53;;;22.90;59.10;;;;;;5055240;28;20485;-57
2023/06/11 03:23:28;;;;;;;8.97;8.27;;;23.00;59.20;;;;;;5055371;28;20943;-57
2023/06/11 03:25:55;;;;;;;9.37;8.57;;;23.00;59.10;;;;;;5055522;28;20492;-57
2023/06/11 03:28:23;;;;;;;8.80;8.10;;;23.00;59.20;;;;;;5055501;28;20453;-57
2023/06/11 03:30:49;;;;;;;9.20;7.93;;;23.00;59.00;;;;;;5055698;28;20444;-57
2023/06/11 03:33:16;;;;;;;8.40;7.70;;;22.90;59.00;;;;;;5055551;28;20457;-57
2023/06/11 03:35:43;;;;;;;8.40;7.70;;;23.00;59.10;;;;;;5055358;28;20453;-57
2023/06/11 03:38:09;;;;;;;9.20;8.50;;;22.90;59.00;;;;;;5055454;28;20855;-57
2023/06/11 03:40:36;;;;;;;8.53;7.83;;;23.00;59.10;;;;;;5055396;28;20473;-57
2023/06/11 03:43:03;;;;;;;8.33;7.63;;;23.00;59.00;;;;;;5055364;28;20853;-58
2023/06/11 03:45:31;;;;;;;8.60;7.93;;;23.00;59.00;;;;;;5055245;28;20457;-57
2023/06/11 03:47:58;;;;;;;8.70;8.00;;;23.00;58.90;;;;;;5055115;28;20481;-57
2023/06/11 03:50:24;;;;;;;9.23;8.37;;;23.00;58.80;;;;;;5054755;28;20862;-57
2023/06/11 03:52:51;;;;;;;8.67;7.77;;;23.00;58.70;;;;;;5055025;28;20476;-57
2023/06/11 03:55:18;;;;;;;8.33;7.63;;;23.10;58.80;;;;;;5055090;28;20445;-57
2023/06/11 03:57:45;;;;;;;8.20;7.40;;;23.10;58.70;;;;;;5054961;28;20469;-57
2023/06/11 04:00:13;;;;;;;8.77;7.70;;;23.00;58.40;;;;;;5054557;28;20480;-57
2023/06/11 04:02:41;;;;;;;8.87;7.77;;;23.10;58.60;;;;;;5054920;28;20445;-57
2023/06/11 04:05:08;;;;;;;9.27;8.47;;;23.00;58.50;;;;;;5054573;28;20450;-57
2023/06/11 04:07:35;;;;;;;8.70;8.00;;;23.00;58.50;;;;;;5054006;28;20492;-57
2023/06/11 04:10:02;;;;;;;8.53;7.83;;;23.00;58.70;;;;;;5054800;28;20507;-57
2023/06/11 04:12:29;;;;;;;8.03;7.33;;;23.00;58.90;;;;;;5054551;28;20466;-57
2023/06/11 04:14:55;;;;;;;8.53;7.80;;;23.00;58.90;;;;;;5054446;28;20950;-57
2023/06/11 04:17:22;;;;;;;8.93;8.17;;;23.00;58.90;;;;;;5054241;28;20935;-57
2023/06/11 04:19:50;;;;;;;9.20;7.50;;;23.10;59.00;;;;;;5054133;28;20859;-57
2023/06/11 04:22:17;;;;;;;8.63;7.93;;;23.10;58.90;;;;;;5054619;28;20457;-57
2023/06/11 04:24:45;;;;;;;7.67;7.07;;;23.10;59.00;;;;;;5054660;28;20441;-57
2023/06/11 04:27:12;;;;;;;7.30;6.80;;;23.10;59.00;;;;;;5054210;28;20987;-57
2023/06/11 04:29:40;;;;;;;7.87;7.20;;;23.10;58.80;;;;;;5054788;28;20453;-57
2023/06/11 04:32:08;;;;;;;9.33;8.53;;;23.10;58.80;;;;;;5054279;28;21018;-56
2023/06/11 04:34:37;;;;;;;8.33;7.53;;;23.10;58.90;;;;;;5054517;28;20441;-57
2023/06/11 04:37:09;;;;;;;9.00;8.00;;;23.10;58.60;;;;;;5054164;28;20573;-57
2023/06/11 04:39:36;;;;;;;8.37;7.60;;;23.20;58.80;;;;;;5054291;28;20758;-57
2023/06/11 04:42:03;;;;;;;8.37;7.50;;;23.10;58.70;;;;;;5053913;28;20969;-57
2023/06/11 04:44:32;;;;;;;8.23;7.53;;;23.20;58.70;;;;;;5053821;28;20959;-57
2023/06/11 04:46:58;;;;;;;8.53;7.63;;;23.20;58.50;;;;;;5053909;28;20480;-57
2023/06/11 04:49:27;;;;;;;8.03;7.33;;;23.30;58.90;;;;;;5053638;28;20851;-57
2023/06/11 04:51:53;;;;;;;7.50;6.80;;;23.30;58.70;;;;;;5054036;28;20446;-57
2023/06/11 04:54:22;;;;;;;8.60;7.77;;;23.30;58.50;;;;;;5053724;28;20819;-57
2023/06/11 04:56:49;;;;;;;8.27;7.60;;;23.30;58.50;;;;;;5053570;28;21050;-57
2023/06/11 04:59:16;;;;;;;8.57;7.77;;;23.30;58.60;;;;;;5053922;28;20450;-57
2023/06/11 05:01:46;;;;;;;7.23;6.60;;;23.30;58.50;;;;;;5053913;28;20492;-57
2023/06/11 05:04:14;;;;;;;8.10;7.40;;;23.40;58.60;;;;;;5053891;28;20458;-57
2023/06/11 05:06:44;;;;;;;8.60;7.80;;;23.40;58.50;;;;;;5054193;28;20497;-57
2023/06/11 05:09:12;;;;;;;8.10;7.40;;;23.40;58.40;;;;;;5054191;28;20461;-57
2023/06/11 05:11:41;;;;;;;8.20;7.50;;;23.40;58.40;;;;;;5053514;28;20449;-57
2023/06/11 05:14:07;;;;;;;7.87;7.10;;;23.40;58.40;;;;;;5053735;28;20444;-57
2023/06/11 05:16:34;;;;;;;7.70;7.10;;;23.50;59.10;;;;;;5053550;28;20537;-57
2023/06/11 05:19:02;;;;;;;8.73;7.93;;;23.50;59.30;;;;;;5052999;28;20970;-57
2023/06/11 05:21:29;;;;;;;11.43;7.60;;;23.50;58.70;;;;;;5052972;28;20481;-57
2023/06/11 05:23:56;;;;;;;10.90;7.90;;;23.60;58.70;;;;;;5053669;28;20536;-57
2023/06/11 05:26:31;;;;;;;8.93;7.53;;;23.60;59.20;;;;;;5053141;28;20474;-57
2023/06/11 05:28:59;;;;;;;7.70;7.10;;;23.60;58.80;;;;;;5053254;28;20939;-57
2023/06/11 05:31:26;;;;;;;8.73;7.97;;;23.70;58.80;;;;;;5053520;28;20533;-57
2023/06/11 05:33:52;;;;;;;7.90;7.30;;;23.70;58.70;;;;;;5053113;28;20453;-57
2023/06/11 05:36:20;;;;;;;7.70;6.90;;;23.80;58.90;;;;;;5053626;28;20519;-57
2023/06/11 05:38:47;;;;;;;8.20;7.50;;;23.80;58.90;;;;;;5053400;28;20446;-57
2023/06/11 05:41:14;;;;;;;7.93;7.30;;;23.90;58.80;;;;;;5053329;28;20517;-57
2023/06/11 05:43:41;;;;;;;8.03;7.33;;;23.90;58.80;;;;;;5053560;28;20457;-57
2023/06/11 05:46:09;;;;;;;8.23;7.60;;;24.00;58.50;;;;;;5053178;28;20472;-57
2023/06/11 05:48:36;;;;;;;8.50;7.70;;;24.00;58.30;;;;;;5053287;28;20453;-57
2023/06/11 05:51:03;;;;;;;8.57;7.83;;;24.10;58.40;;;;;;5053093;28;20882;-57
2023/06/11 05:53:30;;;;;;;9.77;8.93;;;24.20;58.50;;;;;;5052833;28;20947;-57
2023/06/11 05:55:56;;;;;;;8.43;7.73;;;24.20;58.60;;;;;;5052812;28;20994;-57
2023/06/11 05:58:23;;;;;;;7.70;7.13;;;24.30;58.80;;;;;;5052977;28;20465;-57
2023/06/11 06:00:51;;;;;;;8.90;7.67;;;24.30;57.70;;;;;;5053019;28;20477;-57
2023/06/11 06:03:19;;;;;;;8.57;7.90;;;24.30;57.40;;;;;;5053290;28;20449;-57
2023/06/11 06:05:46;;;;;;;7.37;6.77;;;24.30;57.60;;;;;;5053123;28;20456;-57
2023/06/11 06:08:12;;;;;;;8.57;7.07;;;24.40;57.90;;;;;;5052610;28;20461;-57
2023/06/11 06:10:39;;;;;;;8.20;6.80;;;24.40;58.00;;;;;;5052713;28;20947;-57
2023/06/11 06:13:06;;;;;;;7.23;6.63;;;24.50;58.00;;;;;;5052759;28;20985;-57
2023/06/11 06:15:32;;;;;;;7.33;6.73;;;24.60;57.70;;;;;;5052882;28;20462;-57
2023/06/11 06:17:59;;;;;;;8.03;7.43;;;24.70;57.50;;;;;;5052987;28;20456;-57
2023/06/11 06:20:27;;;;;;;8.00;7.40;;;24.80;57.30;;;;;;5052690;28;20496;-57
2023/06/11 06:22:54;;;;;;;8.03;7.43;;;24.80;56.90;;;;;;5052932;28;20449;-57
2023/06/11 06:25:24;;;;;;;8.70;7.90;;;24.90;56.70;;;;;;5052961;28;20449;-57
2023/06/11 06:27:51;;;;;;;7.70;7.13;;;25.00;56.30;;;;;;5052746;28;20470;-57
2023/06/11 06:30:18;;;;;;;7.87;7.00;;;25.10;56.10;;;;;;5052750;28;20449;-57
2023/06/11 06:32:45;;;;;;;8.07;7.37;;;25.20;56.20;;;;;;5056177;28;20791;-57
2023/06/11 06:35:12;;;;;;;8.07;7.37;;;25.30;56.00;;;;;;5057396;28;20445;-57
2023/06/11 06:37:40;;;;;;;8.13;7.47;;;25.40;55.70;;;;;;5056466;28;20466;-57
2023/06/11 06:40:08;;;;;;;7.87;6.90;;;25.50;55.20;;;;;;5056384;28;20454;-57
2023/06/11 06:42:35;;;;;;;7.63;7.03;;;25.70;54.50;;;;;;5056190;28;20870;-57
2023/06/11 06:45:02;;;;;;;7.67;7.07;;;25.80;54.40;;;;;;5056178;28;20453;-58
2023/06/11 06:47:28;;;;;;;7.90;7.00;;;25.90;54.50;;;;;;5056066;28;20469;-58
2023/06/11 06:49:55;;;;;;;8.17;7.57;;;26.10;54.00;;;;;;5056091;28;20496;-58
2023/06/11 06:52:21;;;;;;;7.03;6.53;;;26.20;53.90;;;;;;5056617;28;20480;-57
2023/06/11 06:54:51;;;;;;;7.40;6.90;;;26.30;53.50;;;;;;5056273;28;20583;-57
2023/06/11 06:57:18;;;;;;;7.20;6.70;;;26.50;53.40;;;;;;5056095;28;20553;-57
2023/06/11 06:59:44;;;;;;;7.73;7.07;;;26.70;52.80;;;;;;5056088;28;20499;-57
2023/06/11 07:02:11;;;;;;;7.90;7.20;;;26.70;51.50;;;;;;5055482;28;21003;-57
2023/06/11 07:04:38;;;;;;;8.53;7.70;;;26.80;51.50;;;;;;5056095;28;20460;-57
2023/06/11 07:07:05;;;;;;;6.97;6.47;;;26.80;51.10;;;;;;5055631;28;20470;-57
2023/06/11 07:09:32;;;;;;;7.47;6.43;;;27.00;51.10;;;;;;5055768;28;20890;-58
2023/06/11 07:12:00;;;;;;;7.37;6.67;;;27.10;50.90;;;;;;5055646;28;20454;-58
2023/06/11 07:14:26;;;;;;;7.33;6.80;;;27.30;50.30;;;;;;5055915;28;20449;-57
2023/06/11 07:16:53;;;;;;;7.77;6.97;;;27.40;50.30;;;;;;5055731;28;20466;-57
2023/06/11 07:19:20;;;;;;;7.43;6.93;;;27.50;50.10;;;;;;5055641;28;20445;-58
2023/06/11 07:21:46;;;;;;;7.47;6.77;;;27.70;49.80;;;;;;5055743;28;20473;-58
2023/06/11 07:24:13;;;;;;;7.30;6.80;;;27.90;49.50;;;;;;5055541;28;20457;-58
2023/06/11 07:26:40;;;;;;;7.57;6.80;;;28.00;48.90;;;;;;5056698;28;20465;-58
2023/06/11 07:29:08;;;;;;;6.97;6.47;;;28.20;48.50;;;;;;5056148;28;20549;-58
2023/06/11 07:31:35;;;;;;;7.87;7.07;;;28.40;47.80;;;;;;5056402;28;20441;-57
2023/06/11 07:34:02;;;;;;;7.33;6.80;;;28.50;46.80;;;;;;5056057;28;20504;-58
2023/06/11 07:36:29;;;;;;;7.60;7.03;;;28.50;46.90;;;;;;5055776;28;20556;-57
2023/06/11 07:38:56;;;;;;;6.90;6.40;;;28.40;46.30;;;;;;5055325;28;20462;-58
2023/06/11 07:41:22;;;;;;;7.27;6.77;;;28.40;46.90;;;;;;5055344;28;20486;-58
2023/06/11 07:43:49;;;;;;;7.20;6.70;;;28.50;47.20;;;;;;5054381;28;20453;-58
2023/06/11 07:46:17;;;;;;;7.03;6.53;;;28.70;47.00;;;;;;5055086;28;20499;-58
2023/06/11 07:48:44;;;;;;;7.63;6.93;;;28.90;46.90;;;;;;5055503;28;20456;-57
2023/06/11 07:51:14;;;;;;;6.60;6.20;;;29.00;45.40;;;;;;5054952;28;20791;-58
2023/06/11 07:53:42;;;;;;;6.77;6.27;;;29.00;45.40;;;;;;5055295;28;20489;-58
2023/06/11 07:56:08;;;;;;;7.60;7.10;;;29.10;45.80;;;;;;5055082;28;20466;-57
2023/06/11 07:58:36;;;;;;;9.43;7.13;;;29.30;45.80;;;;;;5055133;28;20520;-57
2023/06/11 08:01:02;;;;;;;6.50;5.90;;;29.50;45.70;;;;;;5055370;28;20564;-57
2023/06/11 08:03:31;;;;;;;7.90;7.20;;;29.70;44.90;;;;;;5055105;28;20457;-58
2023/06/11 08:05:57;;;;;;;7.67;7.10;;;29.80;44.30;;;;;;5054935;28;20487;-58
2023/06/11 08:08:24;;;;;;;8.77;7.17;;;30.00;44.00;;;;;;5054928;28;20456;-58
2023/06/11 08:10:51;;;;;;;7.10;6.57;;;30.10;43.20;;;;;;5054623;28;20445;-58
2023/06/11 08:13:18;;;;;;;7.40;6.87;;;30.20;42.90;;;;;;5054864;28;20459;-57
2023/06/11 08:15:45;;;;;;;7.53;7.00;;;30.30;42.20;;;;;;5054475;28;20824;-55
2023/06/11 08:18:11;;;;;;;8.37;7.77;;;30.20;42.40;;;;;;5054442;28;20821;-56
2023/06/11 08:20:40;;;;;;;7.93;7.23;;;30.20;42.20;;;;;;5054741;28;20518;-56
2023/06/11 08:23:07;;;;;;;7.40;6.80;;;30.30;42.70;;;;;;5054589;28;20458;-57
2023/06/11 08:25:33;;;;;;;7.57;6.97;;;30.40;43.40;;;;;;5054781;28;20441;-56
2023/06/11 08:28:00;;;;;;;6.30;5.90;;;30.70;43.50;;;;;;5054699;28;20507;-56
2023/06/11 08:30:27;;;;;;;7.80;7.20;;;30.90;43.20;;;;;;5054471;28;20449;-57
2023/06/11 08:32:53;;;;;;;7.87;7.27;;;31.10;41.10;;;;;;5054075;28;20926;-56
2023/06/11 08:35:20;;;;;;;7.27;6.77;;;31.30;41.40;;;;;;5054207;28;20448;-57
2023/06/11 08:37:48;;;;;;;7.50;7.00;;;31.50;40.70;;;;;;5054330;28;20469;-56
2023/06/11 08:40:15;;;;;;;7.23;6.70;;;31.70;41.50;;;;;;5054289;28;20445;-56
2023/06/11 08:42:42;;;;;;;6.67;6.20;;;31.90;41.00;;;;;;5054120;28;20485;-56
2023/06/11 08:45:09;;;;;;;7.07;6.53;;;32.00;40.20;;;;;;5054177;28;20499;-56
2023/06/11 08:47:40;;;;;;;6.97;6.37;;;32.30;39.90;;;;;;5053744;28;21005;-57
2023/06/11 08:50:08;;;;;;;7.07;6.47;;;32.50;38.80;;;;;;5053733;28;20900;-57
2023/06/11 08:52:35;;;;;;;6.87;6.37;;;32.70;38.80;;;;;;5054047;28;20456;-56
2023/06/11 08:55:04;;;;;;;7.10;6.60;;;33.00;38.70;;;;;;5053904;28;20483;-56
2023/06/11 08:57:32;;;;;;;8.13;7.60;;;33.20;38.20;;;;;;5053920;28;20476;-56
2023/06/11 08:59:58;;;;;;;6.70;6.20;;;33.30;35.80;;;;;;5053883;28;20441;-56
2023/06/11 09:02:26;;;;;;;7.87;7.23;;;33.30;36.70;;;;;;5053477;28;21002;-56
2023/06/11 09:04:53;;;;;;;7.53;6.93;;;33.50;36.70;;;;;;5053892;28;20477;-56
2023/06/11 09:07:25;;;;;;;7.20;6.60;;;33.60;36.70;;;;;;5053742;28;20527;-56
2023/06/11 09:10:08;;;;;;;8.50;7.60;;;33.70;36.00;;;;;;5053740;28;20444;-56
2023/06/11 09:12:35;;;;;;;7.97;7.37;;;33.80;35.70;;;;;;5053365;28;20457;-57
2023/06/11 09:15:04;;;;;;;7.30;6.80;;;34.00;35.80;;;;;;5053380;28;20849;-56
2023/06/11 09:17:35;;;;;;;7.30;6.70;;;34.20;34.90;;;;;;5053215;28;20889;-57
2023/06/11 09:20:05;;;;;;;6.47;6.00;;;34.30;34.40;;;;;;5053316;28;20484;-57
2023/06/11 09:22:32;;;;;;;7.30;6.70;;;34.40;34.50;;;;;;5053547;28;20475;-56
2023/06/11 09:25:05;;;;;;;7.20;6.70;;;34.60;33.80;;;;;;5053309;28;20957;-56
2023/06/11 09:27:32;;;;;;;9.50;6.90;;;34.70;32.30;;;;;;5053330;28;20465;-56
2023/06/11 09:30:08;;;;;;;7.40;6.87;;;34.60;32.40;;;;;;5053172;28;21024;-56
2023/06/11 09:32:38;;;;;;;7.80;7.13;;;34.40;32.30;;;;;;5053432;28;20437;-56
2023/06/11 09:35:06;;;;;;;7.77;7.07;;;34.20;32.30;;;;;;5053348;28;20465;-57
2023/06/11 09:37:40;;;;;;;6.70;6.20;;;34.00;32.10;;;;;;5053412;28;20480;-57
2023/06/11 09:40:10;;;;;;;7.37;6.60;;;33.90;33.00;;;;;;5053313;28;20448;-57
2023/06/11 09:42:37;;;;;;;7.03;6.40;;;33.90;32.30;;;;;;5052935;28;20911;-57
2023/06/11 09:45:07;;;;;;;7.00;6.50;;;33.80;33.00;;;;;;5053265;28;20456;-57
2023/06/11 09:47:37;;;;;;;7.40;6.73;;;33.70;32.60;;;;;;5052875;28;21054;-57
2023/06/11 09:50:07;;;;;;;6.60;6.10;;;33.80;34.10;;;;;;5053216;28;20972;-57
2023/06/11 09:52:35;;;;;;;7.70;6.13;;;34.20;34.80;;;;;;5052936;28;20889;-57
2023/06/11 09:55:04;;;;;;;7.50;6.77;;;34.50;32.90;;;;;;5052555;28;20533;-57
2023/06/11 09:57:33;;;;;;;8.03;7.30;;;35.00;33.20;;;;;;5052860;28;20981;-57
2023/06/11 10:00:02;;;;;;;7.17;6.60;;;35.50;31.70;;;;;;5053270;28;20543;-57
2023/06/11 10:02:29;;;;;;;7.13;6.50;;;35.80;30.00;;;;;;5052900;28;20480;-57
2023/06/11 10:04:56;;;;;;;6.73;6.20;;;36.10;30.50;;;;;;5052954;28;20529;-57
2023/06/11 10:07:25;;;;;;;7.00;6.50;;;36.40;29.90;;;;;;5056071;28;20854;-57
2023/06/11 10:09:53;;;;;;;6.20;5.80;;;36.80;29.80;;;;;;5057162;28;20445;-57
2023/06/11 10:12:21;;;;;;;5.75;5.35;;;37.10;28.90;;;;;;5056672;28;20687;-57
2023/06/11 10:14:52;;;;;;;6.60;6.00;;;37.50;29.10;;;;;;5057047;28;20212;-57
2023/06/11 10:17:21;;;;;;;5.72;5.32;;;37.90;28.30;;;;;;5056673;28;20588;-57
2023/06/11 10:19:49;;;;;;;5.90;5.40;;;38.30;27.30;;;;;;5056717;28;20213;-57
2023/06/11 10:22:21;;;;;;;5.60;5.18;;;38.70;27.60;;;;;;5056639;28;20651;-57
2023/06/11 10:24:59;;;;;;;6.50;6.00;;;39.20;26.70;;;;;;5056718;28;20556;-57
2023/06/11 10:27:35;;;;;;;5.75;5.35;;;39.50;24.90;;;;;;5057333;28;20276;-57
2023/06/11 10:30:04;;;;;;;5.43;5.03;;;39.50;24.30;;;;;;5058275;28;20194;-57
2023/06/11 10:32:31;;;;;;;6.10;5.70;;;39.50;24.10;;;;;;5058783;28;20281;-57
2023/06/11 10:34:58;;;;;;;6.03;5.43;;;39.50;24.30;;;;;;5057125;28;20260;-57
2023/06/11 10:37:31;;;;;;;6.82;5.68;;;39.90;24.40;;;;;;5062627;28;20232;-57
2023/06/11 10:39:58;;;;;;;6.18;5.57;;;40.20;23.60;;;;;;5076748;28;20688;-57
2023/06/11 10:42:27;;;;;;;6.03;5.53;;;40.50;23.70;;;;;;5076500;28;20234;-57
2023/06/11 10:44:57;;;;;;;6.28;5.78;;;40.90;23.30;;;;;;5076376;28;20685;-57
2023/06/11 10:47:27;;;;;;;8.05;5.60;;;41.20;21.70;;;;;;5076490;28;20229;-57
2023/06/11 10:50:05;;;;;;;6.00;5.60;;;41.30;21.70;;;;;;5076198;28;20213;-57
2023/06/11 10:52:32;;;;;;;5.50;5.00;;;41.30;22.10;;;;;;5077525;28;20182;-57
2023/06/11 10:54:59;;;;;;;5.78;5.38;;;41.70;22.50;;;;;;5076061;28;20690;-57
2023/06/11 10:57:26;;;;;;;5.80;5.30;;;42.30;21.30;;;;;;5076840;28;20222;-57
2023/06/11 10:59:53;;;;;;;4.97;4.68;;;42.90;22.10;;;;;;5078057;28;20209;-57
2023/06/11 11:02:20;;;;;;;4.82;4.53;;;43.40;20.80;;;;;;5078158;28;20222;-57
2023/06/11 11:04:53;;;;;;;6.20;5.05;;;43.90;20.60;;;;;;5076787;28;20201;-57
2023/06/11 11:07:20;;;;;;;5.13;4.82;;;44.50;20.00;;;;;;5075755;28;20652;-57
2023/06/11 11:09:46;;;;;;;5.45;4.80;;;44.90;19.20;;;;;;5075722;28;20675;-57
2023/06/11 11:12:15;;;;;;;5.07;4.68;;;45.40;18.50;;;;;;5075735;28;20229;-57
2023/06/11 11:14:41;;;;;;;5.13;4.43;;;45.80;18.40;;;;;;5076053;28;20683;-57
2023/06/11 11:17:08;;;;;;;5.07;4.68;;;46.00;16.30;;;;;;5075795;28;20218;-57
2023/06/11 11:19:36;;;;;;;5.40;4.47;;;46.20;17.30;;;;;;5075756;28;20212;-58
2023/06/11 11:22:05;;;;;;;5.50;5.10;;;46.20;16.30;;;;;;5075696;28;20699;-57
2023/06/11 11:24:35;;;;;;;6.53;4.70;;;46.50;16.70;;;;;;5075852;28;20205;-57
2023/06/11 11:27:02;;;;;;;4.63;4.28;;;46.70;16.30;;;;;;5075761;28;20249;-57
2023/06/11 11:29:29;;;;;;;5.00;4.60;;;46.80;16.90;;;;;;5075697;28;20211;-57
2023/06/11 11:31:57;;;;;;;5.20;4.72;;;47.00;16.30;;;;;;5075606;28;20283;-57
2023/06/11 11:34:23;;;;;;;4.57;4.28;;;47.00;14.60;;;;;;5076361;28;20205;-57
2023/06/11 11:36:50;;;;;;;4.40;4.00;;;46.70;15.80;;;;;;5075210;28;20715;-57
2023/06/11 11:39:18;;;;;;;5.03;4.50;;;46.80;16.10;;;;;;5075717;28;20247;-57
2023/06/11 11:41:46;;;;;;;4.70;4.30;;;47.10;16.00;;;;;;5074990;28;20669;-58
2023/06/11 11:44:14;;;;;;;4.60;4.22;;;47.50;15.60;;;;;;5075181;28;20675;-57
2023/06/11 11:46:41;;;;;;;6.30;5.40;;;47.70;14.60;;;;;;5075075;28;20742;-58
2023/06/11 11:49:09;;;;;;;5.07;4.57;;;47.60;13.90;;;;;;5075343;28;20623;-57
2023/06/11 11:51:40;;;;;;;4.95;4.65;;;47.50;13.80;;;;;;5075227;28;20205;-58
2023/06/11 11:54:07;;;;;;;5.20;4.70;;;47.40;15.20;;;;;;5075170;28;20181;-58
2023/06/11 11:56:36;;;;;;;5.50;5.00;;;47.60;15.30;;;;;;5075262;28;20225;-57
2023/06/11 11:59:03;;;;;;;5.28;4.82;;;48.00;15.50;;;;;;5075085;28;20210;-58
2023/06/11 12:01:36;;;;;;;5.20;4.65;;;48.20;13.90;;;;;;5075049;28;20621;-58
2023/06/11 12:04:04;;;;;;;4.60;4.30;;;48.10;13.50;;;;;;5074614;28;20634;-58
2023/06/11 12:06:31;;;;;;;4.80;4.50;;;47.80;14.30;;;;;;5074767;28;20711;-58
2023/06/11 12:08:58;;;;;;;5.45;4.70;;;47.80;15.20;;;;;;5074923;28;20206;-58
2023/06/11 12:11:25;;;;;;;5.05;4.70;;;48.20;16.10;;;;;;5067737;28;20213;-58
2023/06/11 12:13:53;;;;;;;5.55;5.20;;;48.40;13.60;;;;;;5054224;28;20678;-58
2023/06/11 12:16:23;;;;;;;5.47;4.47;;;48.70;14.70;;;;;;5054737;28;20305;-58
2023/06/11 12:18:50;;;;;;;6.05;4.40;;;48.70;13.00;;;;;;5054265;28;20680;-58
2023/06/11 12:21:17;;;;;;;4.53;4.22;;;48.70;14.60;;;;;;5054510;28;20206;-58
2023/06/11 12:23:44;;;;;;;6.07;4.40;;;49.00;14.30;;;;;;5054556;28;20222;-58
2023/06/11 12:26:11;;;;;;;4.75;4.45;;;49.30;14.20;;;;;;5054476;28;20236;-58
2023/06/11 12:28:37;;;;;;;4.93;4.63;;;49.70;14.40;;;;;;5054054;28;20336;-58
2023/06/11 12:31:06;;;;;;;6.50;4.72;;;49.90;12.40;;;;;;5054399;28;20202;-58
2023/06/11 12:33:33;;;;;;;4.88;4.43;;;50.10;12.90;;;;;;5054436;28;20264;-58
2023/06/11 12:36:00;;;;;;;4.50;4.20;;;50.30;13.80;;;;;;5054346;28;20225;-58
2023/06/11 12:38:26;;;;;;;5.93;4.60;;;50.30;12.20;;;;;;5054324;28;20202;-58
2023/06/11 12:40:53;;;;;;;4.35;3.95;;;50.50;13.40;;;;;;5054290;28;20240;-58
2023/06/11 12:43:20;;;;;;;4.55;4.15;;;50.80;13.00;;;;;;5054203;28;20268;-58
2023/06/11 12:45:46;;;;;;;5.88;4.07;;;51.10;12.70;;;;;;5053755;28;20257;-58
2023/06/11 12:48:15;;;;;;;4.50;4.20;;;51.40;12.20;;;;;;5053892;28;20209;-58